Time;durP1;ratioP1;P1;durP2;ratioP2;P2;SDS_P1;SDS_P2;PMS_P1;PMS_P2;Temp;Humidity;BMP_temperature;BMP_pressure;BME280_temperature;BME280_humidity;BME280_pressure;Samples;Min_cycle;Max_cycle;Signal;HPM_P1;HPM_P2
2023/05/09 00:02:09;;;;;;;;;;;;;;;;;;4975044;28;19929;-88
2023/05/09 00:04:35;;;;;;;;;;;;;;;;;;4974510;28;19929;-88
2023/05/09 00:07:01;;;;;;;;;;;;;;;;;;4958287;28;20017;-88
2023/05/09 00:09:27;;;;;;;;;;;;;;;;;;4957980;28;20291;-88
2023/05/09 00:11:53;;;;;;;;;;;;;;;;;;4974333;28;20338;-88
2023/05/09 00:14:19;;;;;;;;;;;;;;;;;;4958150;28;20369;-88
2023/05/09 00:16:45;;;;;;;;;;;;;;;;;;4974208;28;19926;-88
2023/05/09 00:19:11;;;;;;;;;;;;;;;;;;4957985;28;20017;-88
2023/05/09 00:21:37;;;;;;;;;;;;;;;;;;4957943;28;19973;-88
2023/05/09 00:24:03;;;;;;;;;;;;;;;;;;4958069;28;19969;-88
2023/05/09 00:26:29;;;;;;;;;;;;;;;;;;4958159;28;19926;-88
2023/05/09 00:28:55;;;;;;;;;;;;;;;;;;4958019;28;20397;-88
2023/05/09 00:31:21;;;;;;;;;;;;;;;;;;4957485;28;19933;-87
2023/05/09 00:33:47;;;;;;;;;;;;;;;;;;4973743;28;19922;-88
2023/05/09 00:36:13;;;;;;;;;;;;;;;;;;4957523;28;20020;-88
2023/05/09 00:38:39;;;;;;;;;;;;;;;;;;4957415;28;20417;-88
2023/05/09 00:41:05;;;;;;;;;;;;;;;;;;4957357;28;19929;-88
2023/05/09 00:43:31;;;;;;;;;;;;;;;;;;4957834;28;20228;-88
2023/05/09 00:45:56;;;;;;;;;;;;;;;;;;4973793;28;19928;-88
2023/05/09 00:48:22;;;;;;;;;;;;;;;;;;4957300;28;19926;-87
2023/05/09 00:50:51;;;;;;;;;;;;;;;;;;4957262;28;19969;-88
2023/05/09 00:53:17;;;;;;;;;;;;;;;;;;4957447;28;19922;-88
2023/05/09 00:55:43;;;;;;;;;;;;;;;;;;4957399;28;20405;-88
2023/05/09 00:58:09;;;;;;;;;;;;;;;;;;4957264;28;19973;-87
2023/05/09 01:00:35;;;;;;;;;;;;;;;;;;4957295;28;19929;-88
2023/05/09 01:03:01;;;;;;;;;;;;;;;;;;4957472;28;20133;-88
2023/05/09 01:05:27;;;;;;;;;;;;;;;;;;4957167;28;19929;-88
2023/05/09 01:07:53;;;;;;;;;;;;;;;;;;4957418;28;19930;-88
2023/05/09 01:10:19;;;;;;;;;;;;;;;;;;4957179;28;20356;-88
2023/05/09 01:12:44;;;;;;;;;;;;;;;;;;4957256;28;19929;-88
2023/05/09 01:15:10;;;;;;;;;;;;;;;;;;4957393;28;20405;-89
2023/05/09 01:17:36;;;;;;;;;;;;;;;;;;4957202;28;19930;-89
2023/05/09 01:20:04;;;;;;;;;;;;;;;;;;4973332;28;20009;-88
2023/05/09 01:22:30;;;;;;;;;;;;;;;;;;4957231;28;20319;-88
2023/05/09 01:24:56;;;;;;;;;;;;;;;;;;4957267;28;19922;-88
2023/05/09 01:27:22;;;;;;;;;;;;;;;;;;4956969;28;19922;-89
2023/05/09 01:29:48;;;;;;;;;;;;;;;;;;4957041;28;20358;-88
2023/05/09 01:32:14;;;;;;;;;;;;;;;;;;4956892;28;20401;-89
2023/05/09 01:34:40;;;;;;;;;;;;;;;;;;4957244;28;19928;-88
2023/05/09 01:37:06;;;;;;;;;;;;;;;;;;4957087;28;19934;-88
2023/05/09 01:39:32;;;;;;;;;;;;;;;;;;4956602;28;20009;-88
2023/05/09 01:41:58;;;;;;;;;;;;;;;;;;4956826;28;19922;-88
2023/05/09 01:44:23;;;;;;;;;;;;;;;;;;4956966;28;19923;-89
2023/05/09 01:46:49;;;;;;;;;;;;;;;;;;4956908;28;20334;-89
2023/05/09 01:49:15;;;;;;;;;;;;;;;;;;4956736;28;19925;-89
2023/05/09 01:51:41;;;;;;;;;;;;;;;;;;4956493;28;19926;-89
2023/05/09 01:54:07;;;;;;;;;;;;;;;;;;4956869;28;19929;-89
2023/05/09 01:56:35;;;;;;;;;;;;;;;;;;4956788;28;19981;-88
2023/05/09 01:59:00;;;;;;;;;;;;;;;;;;4956772;28;19983;-88
2023/05/09 02:01:26;;;;;;;;;;;;;;;;;;4956527;28;19926;-88
2023/05/09 02:03:52;;;;;;;;;;;;;;;;;;4956706;28;19922;-89
2023/05/09 02:06:18;;;;;;;;;;;;;;;;;;4956860;28;19922;-89
2023/05/09 02:08:44;;;;;;;;;;;;;;;;;;4956594;28;19965;-88
2023/05/09 02:11:10;;;;;;;;;;;;;;;;;;4972355;28;19929;-88
2023/05/09 02:13:37;;;;;;;;;;;;;;;;;;4956527;28;20016;-88
2023/05/09 02:16:03;;;;;;;;;;;;;;;;;;4956423;28;19927;-88
2023/05/09 02:18:31;;;;;;;;;;;;;;;;;;4956280;28;19922;-88
2023/05/09 02:20:57;;;;;;;;;;;;;;;;;;4956056;28;20012;-88
2023/05/09 02:23:23;;;;;;;;;;;;;;;;;;4956309;28;20379;-88
2023/05/09 02:25:49;;;;;;;;;;;;;;;;;;4956265;28;19922;-88
2023/05/09 02:28:15;;;;;;;;;;;;;;;;;;4956560;28;19922;-89
2023/05/09 02:30:41;;;;;;;;;;;;;;;;;;4956188;28;19929;-89
2023/05/09 02:33:07;;;;;;;;;;;;;;;;;;4956501;28;19922;-89
2023/05/09 02:35:33;;;;;;;;;;;;;;;;;;4956664;28;19969;-88
2023/05/09 02:37:59;;;;;;;;;;;;;;;;;;4955803;28;20390;-88
2023/05/09 02:40:25;;;;;;;;;;;;;;;;;;4956082;28;20434;-88
2023/05/09 02:42:51;;;;;;;;;;;;;;;;;;4956039;28;19930;-88
2023/05/09 02:45:17;;;;;;;;;;;;;;;;;;4956080;28;19926;-88
2023/05/09 02:47:43;;;;;;;;;;;;;;;;;;4972468;28;19929;-88
2023/05/09 02:50:09;;;;;;;;;;;;;;;;;;4955933;28;19922;-88
2023/05/09 02:52:35;;;;;;;;;;;;;;;;;;4956192;28;19922;-88
2023/05/09 02:55:00;;;;;;;;;;;;;;;;;;4956097;28;19976;-88
2023/05/09 02:57:26;;;;;;;;;;;;;;;;;;4955763;28;20387;-88
2023/05/09 02:59:52;;;;;;;;;;;;;;;;;;4955765;28;19926;-89
2023/05/09 03:02:18;;;;;;;;;;;;;;;;;;4957254;28;19945;-88
2023/05/09 03:04:44;;;;;;;;;;;;;;;;;;4975963;28;19926;-88
2023/05/09 03:07:10;;;;;;;;;;;;;;;;;;4959894;28;19922;-88
2023/05/09 03:09:36;;;;;;;;;;;;;;;;;;4975340;28;20012;-87
2023/05/09 03:12:02;;;;;;;;;;;;;;;;;;4959374;28;20302;-88
2023/05/09 03:14:28;;;;;;;;;;;;;;;;;;4975392;28;20426;-88
2023/05/09 03:16:54;;;;;;;;;;;;;;;;;;4959084;28;20013;-88
2023/05/09 03:19:20;;;;;;;;;;;;;;;;;;4959061;28;19922;-88
2023/05/09 03:21:46;;;;;;;;;;;;;;;;;;4959236;28;19930;-88
2023/05/09 03:24:12;;;;;;;;;;;;;;;;;;4975670;28;19957;-88
2023/05/09 03:26:38;;;;;;;;;;;;;;;;;;4959657;28;20371;-88
2023/05/09 03:29:04;;;;;;;;;;;;;;;;;;4959229;28;19922;-88
2023/05/09 03:31:30;;;;;;;;;;;;;;;;;;4959061;28;19926;-88
2023/05/09 03:33:56;;;;;;;;;;;;;;;;;;4959187;28;19929;-88
2023/05/09 03:36:22;;;;;;;;;;;;;;;;;;4975143;28;19926;-88
2023/05/09 03:38:48;;;;;;;;;;;;;;;;;;4958666;28;20298;-88
2023/05/09 03:41:14;;;;;;;;;;;;;;;;;;4958633;28;20272;-88
2023/05/09 03:43:40;;;;;;;;;;;;;;;;;;4958462;28;19929;-88
2023/05/09 03:46:06;;;;;;;;;;;;;;;;;;4958691;28;20411;-88
2023/05/09 03:48:31;;;;;;;;;;;;;;;;;;4974688;28;20419;-88
2023/05/09 03:50:57;;;;;;;;;;;;;;;;;;4958687;28;19973;-88
2023/05/09 03:53:23;;;;;;;;;;;;;;;;;;4958763;28;20013;-88
2023/05/09 03:55:49;;;;;;;;;;;;;;;;;;4958483;28;19926;-88
2023/05/09 03:58:18;;;;;;;;;;;;;;;;;;4958572;28;19922;-88
2023/05/09 04:00:43;;;;;;;;;;;;;;;;;;4958501;28;20359;-88
2023/05/09 04:03:09;;;;;;;;;;;;;;;;;;4954899;28;19933;-88
2023/05/09 04:05:35;;;;;;;;;;;;;;;;;;4947094;29;20303;-88
2023/05/09 04:08:01;;;;;;;;;;;;;;;;;;4949734;28;20004;-88
2023/05/09 04:10:27;;;;;;;;;;;;;;;;;;4949859;28;19923;-88
2023/05/09 04:12:53;;;;;;;;;;;;;;;;;;4964112;28;20431;-87
2023/05/09 04:15:19;;;;;;;;;;;;;;;;;;4947277;28;19922;-87
2023/05/09 04:17:45;;;;;;;;;;;;;;;;;;4948889;28;19933;-87
2023/05/09 04:20:11;;;;;;;;;;;;;;;;;;4950504;28;19929;-88
2023/05/09 04:22:37;;;;;;;;;;;;;;;;;;4950345;28;19926;-88
2023/05/09 04:25:03;;;;;;;;;;;;;;;;;;4949990;28;19976;-88
2023/05/09 04:27:29;;;;;;;;;;;;;;;;;;4963268;28;19930;-88
2023/05/09 04:29:55;;;;;;;;;;;;;;;;;;4964500;28;19930;-88
2023/05/09 04:32:21;;;;;;;;;;;;;;;;;;4947774;28;19922;-88
2023/05/09 04:34:47;;;;;;;;;;;;;;;;;;4950389;28;20419;-88
2023/05/09 04:37:13;;;;;;;;;;;;;;;;;;4946742;28;20029;-88
2023/05/09 04:39:39;;;;;;;;;;;;;;;;;;4949031;28;19922;-88
2023/05/09 04:42:04;;;;;;;;;;;;;;;;;;4950285;29;20378;-88
2023/05/09 04:44:31;;;;;;;;;;;;;;;;;;4949112;28;19926;-88
2023/05/09 04:46:57;;;;;;;;;;;;;;;;;;4949644;28;19922;-88
2023/05/09 04:49:23;;;;;;;;;;;;;;;;;;4947042;28;19976;-88
2023/05/09 04:51:49;;;;;;;;;;;;;;;;;;4948056;28;20361;-88
2023/05/09 04:54:15;;;;;;;;;;;;;;;;;;4948231;28;20183;-89
2023/05/09 04:56:41;;;;;;;;;;;;;;;;;;4949938;28;20419;-89
2023/05/09 04:59:07;;;;;;;;;;;;;;;;;;4945692;29;19955;-88
2023/05/09 05:01:33;;;;;;;;;;;;;;;;;;4945089;28;20453;-88
2023/05/09 05:03:59;;;;;;;;;;;;;;;;;;4946126;28;19929;-88
2023/05/09 05:06:25;;;;;;;;;;;;;;;;;;4948079;28;20303;-88
2023/05/09 05:08:50;;;;;;;;;;;;;;;;;;4946880;28;19922;-88
2023/05/09 05:11:16;;;;;;;;;;;;;;;;;;4946620;28;19922;-88
2023/05/09 05:13:42;;;;;;;;;;;;;;;;;;4948967;28;19985;-88
2023/05/09 05:16:08;;;;;;;;;;;;;;;;;;4964708;28;20310;-88
2023/05/09 05:18:34;;;;;;;;;;;;;;;;;;4945451;29;20291;-87
2023/05/09 05:21:00;;;;;;;;;;;;;;;;;;4944501;28;20001;-88
2023/05/09 05:23:26;;;;;;;;;;;;;;;;;;4945582;28;19930;-87
2023/05/09 05:25:52;;;;;;;;;;;;;;;;;;4946609;28;19981;-86
2023/05/09 05:28:18;;;;;;;;;;;;;;;;;;4948288;28;20371;-87
2023/05/09 05:30:44;;;;;;;;;;;;;;;;;;4948273;28;19957;-87
2023/05/09 05:33:10;;;;;;;;;;;;;;;;;;4947580;28;20004;-87
2023/05/09 05:35:36;;;;;;;;;;;;;;;;;;4945149;28;19955;-87
2023/05/09 05:38:01;;;;;;;;;;;;;;;;;;4944491;29;19927;-87
2023/05/09 05:40:27;;;;;;;;;;;;;;;;;;4947898;28;20390;-87
2023/05/09 05:42:53;;;;;;;;;;;;;;;;;;4944369;28;19926;-87
2023/05/09 05:45:19;;;;;;;;;;;;;;;;;;4946776;28;20291;-87
2023/05/09 05:47:45;;;;;;;;;;;;;;;;;;4947288;28;19926;-88
2023/05/09 05:50:11;;;;;;;;;;;;;;;;;;4948480;28;20029;-88
2023/05/09 05:52:37;;;;;;;;;;;;;;;;;;4961529;28;20304;-88
2023/05/09 05:55:03;;;;;;;;;;;;;;;;;;4948158;28;19926;-88
2023/05/09 05:57:29;;;;;;;;;;;;;;;;;;4952041;28;19926;-88
2023/05/09 05:59:55;;;;;;;;;;;;;;;;;;4961071;28;19976;-88
2023/05/09 06:02:21;;;;;;;;;;;;;;;;;;4947426;28;19926;-88
2023/05/09 06:04:47;;;;;;;;;;;;;;;;;;4946344;28;20295;-88
2023/05/09 06:07:13;;;;;;;;;;;;;;;;;;4962771;28;19929;-92
2023/05/09 06:09:39;;;;;;;;;;;;;;;;;;4948661;28;20380;-89
2023/05/09 06:12:05;;;;;;;;;;;;;;;;;;4948336;28;19922;-89
2023/05/09 06:14:31;;;;;;;;;;;;;;;;;;4948663;28;20395;-89
2023/05/09 06:16:57;;;;;;;;;;;;;;;;;;4948762;29;19973;-87
2023/05/09 06:19:24;;;;;;;;;;;;;;;;;;4962700;28;20126;-89
2023/05/09 06:21:53;;;;;;;;;;;;;;;;;;4945294;29;19974;-85
2023/05/09 06:24:19;;;;;;;;;;;;;;;;;;4943146;28;19929;-85
2023/05/09 06:26:45;;;;;;;;;;;;;;;;;;4963769;28;19923;-85
2023/05/09 06:29:13;;;;;;;;;;;;;;;;;;4952551;28;20379;-84
2023/05/09 06:31:39;;;;;;;;;;;;;;;;;;4957011;28;19930;-84
2023/05/09 06:34:09;;;;;;;;;;;;;;;;;;4967136;28;19977;-85
2023/05/09 06:36:35;;;;;;;;;;;;;;;;;;4953629;28;19980;-85
2023/05/09 06:39:01;;;;;;;;;;;;;;;;;;4949898;29;19930;-86
2023/05/09 06:41:27;;;;;;;;;;;;;;;;;;4960546;28;20498;-88
2023/05/09 06:43:53;;;;;;;;;;;;;;;;;;4961660;28;20295;-91
2023/05/09 06:46:19;;;;;;;;;;;;;;;;;;4958945;28;20391;-90
2023/05/09 06:48:44;;;;;;;;;;;;;;;;;;4948096;28;19928;-89
2023/05/09 06:51:10;;;;;;;;;;;;;;;;;;4961698;28;20371;-88
2023/05/09 06:53:36;;;;;;;;;;;;;;;;;;4960903;28;19977;-88
2023/05/09 06:56:02;;;;;;;;;;;;;;;;;;4961358;28;19977;-93
2023/05/09 06:58:28;;;;;;;;;;;;;;;;;;4952910;29;20005;-93
2023/05/09 07:00:54;;;;;;;;;;;;;;;;;;4958589;28;19927;-90
2023/05/09 07:03:20;;;;;;;;;;;;;;;;;;4948591;28;19930;-88
2023/05/09 07:05:46;;;;;;;;;;;;;;;;;;4954128;28;20396;-86
2023/05/09 07:08:12;;;;;;;;;;;;;;;;;;4942376;28;19960;-84
2023/05/09 07:10:38;;;;;;;;;;;;;;;;;;4962048;28;19964;-84
2023/05/09 07:13:04;;;;;;;;;;;;;;;;;;4970762;28;19981;-84
2023/05/09 07:15:30;;;;;;;;;;;;;;;;;;4947030;29;19954;-84
2023/05/09 07:17:56;;;;;;;;;;;;;;;;;;4952234;28;19926;-84
2023/05/09 07:20:22;;;;;;;;;;;;;;;;;;4959913;28;20017;-84
2023/05/09 07:22:48;;;;;;;;;;;;;;;;;;4959445;28;20013;-83
2023/05/09 07:25:13;;;;;;;;;;;;;;;;;;4942080;29;19922;-84
2023/05/09 07:27:39;;;;;;;;;;;;;;;;;;4957384;28;19922;-85
2023/05/09 07:30:05;;;;;;;;;;;;;;;;;;4959293;28;20302;-86
2023/05/09 07:32:31;;;;;;;;;;;;;;;;;;4959384;28;19926;-86
2023/05/09 07:37:45;;;;;;;;;;;;;;;;;;4972208;28;19930;-91
2023/05/09 07:40:11;;;;;;;;;;;;;;;;;;4951900;28;19969;-90
2023/05/09 07:42:37;;;;;;;;;;;;;;;;;;4960559;28;19930;-89
2023/05/09 07:45:05;;;;;;;;;;;;;;;;;;4974159;28;19924;-89
2023/05/09 07:47:30;;;;;;;;;;;;;;;;;;4960115;28;19922;-88
2023/05/09 07:49:57;;;;;;;;;;;;;;;;;;4955484;28;19922;-88
2023/05/09 07:52:23;;;;;;;;;;;;;;;;;;4952734;28;19966;-87
2023/05/09 07:54:49;;;;;;;;;;;;;;;;;;4948361;28;19965;-88
2023/05/09 07:57:15;;;;;;;;;;;;;;;;;;4951542;28;19930;-91
2023/05/09 07:59:41;;;;;;;;;;;;;;;;;;4946573;28;20268;-89
2023/05/09 08:02:07;;;;;;;;;;;;;;;;;;4946187;28;19965;-87
2023/05/09 08:04:37;;;;;;;;;;;;;;;;;;4947691;28;19922;-84
2023/05/09 08:07:03;;;;;;;;;;;;;;;;;;4959164;28;19996;-86
2023/05/09 08:09:29;;;;;;;;;;;;;;;;;;4958272;28;19922;-84
2023/05/09 08:11:54;;;;;;;;;;;;;;;;;;4949300;28;19929;-86
2023/05/09 08:17:08;;;;;;;;;;;;;;;;;;4969002;28;20273;-85
2023/05/09 08:19:34;;;;;;;;;;;;;;;;;;4959219;28;20390;-84
2023/05/09 08:22:00;;;;;;;;;;;;;;;;;;4946455;29;19923;-84
2023/05/09 08:24:43;;;;;;;;;;;;;;;;;;4952537;28;20016;-84
2023/05/09 08:27:09;;;;;;;;;;;;;;;;;;4957047;28;19945;-83
2023/05/09 08:29:35;;;;;;;;;;;;;;;;;;4958167;28;19922;-90
2023/05/09 08:32:42;;;;;;;;;;;;;;;;;;;;;
2023/05/09 08:35:07;;;;;;;;;;;;;;;;;;4974315;28;19921;-93
2023/05/09 08:37:33;;;;;;;;;;;;;;;;;;4958642;28;19933;-94
2023/05/09 08:42:56;;;;;;;;;;;;;;;;;;4938433;29;20261;-94
2023/05/09 08:45:28;;;;;;;;;;;;;;;;;;4951851;28;19923;-92
2023/05/09 08:47:55;;;;;;;;;;;;;;;;;;4951292;29;19922;-92
2023/05/09 08:53:25;;;;;;;;;;;;;;;;;;4971830;28;19965;-94
2023/05/09 08:55:51;;;;;;;;;;;;;;;;;;4947192;28;19930;-94
2023/05/09 08:58:18;;;;;;;;;;;;;;;;;;4945883;29;20439;-89
2023/05/09 09:00:54;;;;;;;;;;;;;;;;;;4955137;28;19954;-90
2023/05/09 09:03:20;;;;;;;;;;;;;;;;;;4974840;28;19922;-83
2023/05/09 09:05:46;;;;;;;;;;;;;;;;;;4982434;28;19972;-83
2023/05/09 09:08:12;;;;;;;;;;;;;;;;;;4957921;28;20008;-84
2023/05/09 09:10:48;;;;;;;;;;;;;;;;;;4954891;28;19969;-83
2023/05/09 09:13:16;;;;;;;;;;;;;;;;;;4971259;28;19923;-83
2023/05/09 09:15:44;;;;;;;;;;;;;;;;;;4970800;28;20049;-83
2023/05/09 09:18:10;;;;;;;;;;;;;;;;;;4970966;28;19928;-84
2023/05/09 09:20:36;;;;;;;;;;;;;;;;;;4946701;28;19930;-83
2023/05/09 09:23:02;;;;;;;;;;;;;;;;;;4943628;28;20046;-84
2023/05/09 09:25:28;;;;;;;;;;;;;;;;;;4962747;28;19926;-83
2023/05/09 09:27:54;;;;;;;;;;;;;;;;;;4949779;28;20406;-84
2023/05/09 09:30:21;;;;;;;;;;;;;;;;;;4945167;29;19982;-82
2023/05/09 09:32:47;;;;;;;;;;;;;;;;;;4948223;28;19965;-84
2023/05/09 09:35:13;;;;;;;;;;;;;;;;;;4967661;28;19977;-84
2023/05/09 09:37:39;;;;;;;;;;;;;;;;;;4951217;28;19930;-85
2023/05/09 09:40:05;;;;;;;;;;;;;;;;;;4949768;28;19922;-85
2023/05/09 09:42:31;;;;;;;;;;;;;;;;;;4941494;28;20343;-84
2023/05/09 09:44:57;;;;;;;;;;;;;;;;;;4967649;28;19922;-85
2023/05/09 09:47:23;;;;;;;;;;;;;;;;;;4946986;28;19922;-85
2023/05/09 09:49:49;;;;;;;;;;;;;;;;;;4948440;28;20295;-84
2023/05/09 09:52:14;;;;;;;;;;;;;;;;;;4950630;28;19934;-85
2023/05/09 09:54:41;;;;;;;;;;;;;;;;;;4951589;28;20358;-85
2023/05/09 09:57:06;;;;;;;;;;;;;;;;;;4961784;28;19927;-85
2023/05/09 09:59:32;;;;;;;;;;;;;;;;;;4956921;28;19993;-85
2023/05/09 10:01:59;;;;;;;;;;;;;;;;;;4968253;28;19945;-85
2023/05/09 10:04:24;;;;;;;;;;;;;;;;;;4969297;28;20109;-85
2023/05/09 10:06:50;;;;;;;;;;;;;;;;;;4945156;28;19988;-85
2023/05/09 10:09:17;;;;;;;;;;;;;;;;;;4949716;28;19922;-85
2023/05/09 10:11:43;;;;;;;;;;;;;;;;;;4949835;28;20298;-89
2023/05/09 10:14:10;;;;;;;;;;;;;;;;;;4957816;28;19922;-90
2023/05/09 10:16:36;;;;;;;;;;;;;;;;;;4955512;28;19926;-89
2023/05/09 10:19:02;;;;;;;;;;;;;;;;;;4949289;28;19950;-94
2023/05/09 10:21:28;;;;;;;;;;;;;;;;;;4949657;28;19929;-88
2023/05/09 10:23:54;;;;;;;;;;;;;;;;;;4949758;28;19922;-89
2023/05/09 10:26:19;;;;;;;;;;;;;;;;;;4954481;28;19977;-89
2023/05/09 10:28:45;;;;;;;;;;;;;;;;;;4950650;28;19977;-90
2023/05/09 10:31:11;;;;;;;;;;;;;;;;;;4949633;28;19926;-93
2023/05/09 10:33:37;;;;;;;;;;;;;;;;;;4944330;28;20010;-88
2023/05/09 10:36:03;;;;;;;;;;;;;;;;;;4946822;28;20024;-88
2023/05/09 10:38:29;;;;;;;;;;;;;;;;;;4945701;28;20383;-88
2023/05/09 10:40:55;;;;;;;;;;;;;;;;;;4944030;28;19922;-88
2023/05/09 10:43:22;;;;;;;;;;;;;;;;;;4948341;28;19937;-88
2023/05/09 10:45:48;;;;;;;;;;;;;;;;;;4947767;28;19922;-88
2023/05/09 10:48:15;;;;;;;;;;;;;;;;;;4943879;28;20279;-88
2023/05/09 10:50:41;;;;;;;;;;;;;;;;;;4963527;28;20398;-88
2023/05/09 10:53:07;;;;;;;;;;;;;;;;;;4951784;28;19977;-88
2023/05/09 10:55:33;;;;;;;;;;;;;;;;;;4945065;28;19922;-89
2023/05/09 10:57:59;;;;;;;;;;;;;;;;;;4943371;28;20507;-88
2023/05/09 11:00:25;;;;;;;;;;;;;;;;;;4943393;28;20069;-88
2023/05/09 11:02:51;;;;;;;;;;;;;;;;;;4948285;28;20013;-89
2023/05/09 11:05:17;;;;;;;;;;;;;;;;;;4946373;28;19922;-89
2023/05/09 11:07:43;;;;;;;;;;;;;;;;;;4951086;28;19926;-88
2023/05/09 11:10:09;;;;;;;;;;;;;;;;;;4947579;28;19923;-88
2023/05/09 11:12:35;;;;;;;;;;;;;;;;;;4963629;28;19929;-89
2023/05/09 11:15:00;;;;;;;;;;;;;;;;;;4947635;28;19930;-89
2023/05/09 11:17:26;;;;;;;;;;;;;;;;;;4949687;28;20280;-88
2023/05/09 11:19:52;;;;;;;;;;;;;;;;;;4947897;28;19926;-88
2023/05/09 11:22:18;;;;;;;;;;;;;;;;;;4951313;28;19977;-88
2023/05/09 11:24:45;;;;;;;;;;;;;;;;;;4951891;28;19961;-87
2023/05/09 11:27:10;;;;;;;;;;;;;;;;;;4967763;28;20446;-88
2023/05/09 11:29:36;;;;;;;;;;;;;;;;;;4946466;28;19922;-87
2023/05/09 11:32:02;;;;;;;;;;;;;;;;;;4948151;28;19926;-87
2023/05/09 11:34:28;;;;;;;;;;;;;;;;;;4946959;28;19922;-89
2023/05/09 11:36:54;;;;;;;;;;;;;;;;;;4969432;28;19937;-89
2023/05/09 11:39:20;;;;;;;;;;;;;;;;;;4950104;28;20910;-88
2023/05/09 11:41:46;;;;;;;;;;;;;;;;;;4944614;28;19930;-89
2023/05/09 11:44:12;;;;;;;;;;;;;;;;;;4948405;28;19926;-89
2023/05/09 11:46:38;;;;;;;;;;;;;;;;;;4951172;28;19929;-89
2023/05/09 11:49:04;;;;;;;;;;;;;;;;;;4948935;28;20294;-88
2023/05/09 11:51:30;;;;;;;;;;;;;;;;;;4957203;28;19922;-89
2023/05/09 11:53:56;;;;;;;;;;;;;;;;;;4957923;28;20434;-89
2023/05/09 11:56:21;;;;;;;;;;;;;;;;;;4955397;28;19933;-89
2023/05/09 11:58:47;;;;;;;;;;;;;;;;;;4950547;28;19922;-90
2023/05/09 12:01:13;;;;;;;;;;;;;;;;;;4958362;28;19922;-88
2023/05/09 12:03:40;;;;;;;;;;;;;;;;;;4958356;28;19929;-90
2023/05/09 12:06:05;;;;;;;;;;;;;;;;;;4970481;28;19922;-89
2023/05/09 12:08:31;;;;;;;;;;;;;;;;;;4957498;28;20454;-89
2023/05/09 12:10:57;;;;;;;;;;;;;;;;;;4970787;28;19929;-89
2023/05/09 12:13:23;;;;;;;;;;;;;;;;;;4957448;28;20327;-90
2023/05/09 12:15:49;;;;;;;;;;;;;;;;;;4954519;28;20091;-90
2023/05/09 12:18:17;;;;;;;;;;;;;;;;;;4958019;28;19930;-88
2023/05/09 12:20:43;;;;;;;;;;;;;;;;;;4959197;28;19930;-89
2023/05/09 12:23:09;;;;;;;;;;;;;;;;;;4956319;28;20398;-90
2023/05/09 12:25:35;;;;;;;;;;;;;;;;;;4973886;28;19996;-89
2023/05/09 12:28:01;;;;;;;;;;;;;;;;;;4958570;28;19922;-91
2023/05/09 12:30:26;;;;;;;;;;;;;;;;;;4957703;28;19922;-91
2023/05/09 12:32:52;;;;;;;;;;;;;;;;;;4973813;28;20375;-90
2023/05/09 12:35:19;;;;;;;;;;;;;;;;;;4973575;28;19922;-90
2023/05/09 12:37:45;;;;;;;;;;;;;;;;;;4957565;28;20013;-90
2023/05/09 12:40:11;;;;;;;;;;;;;;;;;;4953830;28;19957;-90
2023/05/09 12:42:37;;;;;;;;;;;;;;;;;;4957907;28;19922;-90
2023/05/09 12:45:03;;;;;;;;;;;;;;;;;;4957468;28;19936;-90
2023/05/09 12:47:30;;;;;;;;;;;;;;;;;;4958124;28;19981;-90
2023/05/09 12:49:56;;;;;;;;;;;;;;;;;;4957233;28;20399;-90
2023/05/09 12:52:21;;;;;;;;;;;;;;;;;;4953406;28;19923;-91
2023/05/09 12:54:47;;;;;;;;;;;;;;;;;;4957573;28;19929;-91
2023/05/09 12:57:13;;;;;;;;;;;;;;;;;;4957715;28;19926;-91
2023/05/09 12:59:39;;;;;;;;;;;;;;;;;;4973524;28;20298;-89
2023/05/09 13:02:05;;;;;;;;;;;;;;;;;;4957516;28;19986;-91
2023/05/09 13:04:31;;;;;;;;;;;;;;;;;;4957060;28;20036;-90
2023/05/09 13:06:58;;;;;;;;;;;;;;;;;;4956879;28;19922;-91
2023/05/09 13:09:24;;;;;;;;;;;;;;;;;;4956449;28;19929;-90
2023/05/09 13:11:50;;;;;;;;;;;;;;;;;;4957062;28;19922;-91
2023/05/09 13:14:16;;;;;;;;;;;;;;;;;;4956565;28;20312;-90
2023/05/09 13:16:42;;;;;;;;;;;;;;;;;;4957395;28;19930;-90
2023/05/09 13:19:08;;;;;;;;;;;;;;;;;;4973290;28;19923;-88
2023/05/09 13:21:34;;;;;;;;;;;;;;;;;;4957665;28;19925;-90
2023/05/09 13:24:00;;;;;;;;;;;;;;;;;;4955869;28;19923;-90
2023/05/09 13:26:26;;;;;;;;;;;;;;;;;;4973157;28;19922;-90
2023/05/09 13:28:52;;;;;;;;;;;;;;;;;;4956857;28;19929;-90
2023/05/09 13:31:18;;;;;;;;;;;;;;;;;;4973111;28;19926;-90
2023/05/09 13:33:44;;;;;;;;;;;;;;;;;;4972983;28;19922;-90
2023/05/09 13:36:09;;;;;;;;;;;;;;;;;;4956914;28;20069;-90
2023/05/09 13:38:39;;;;;;;;;;;;;;;;;;4956926;28;20339;-90
2023/05/09 13:41:05;;;;;;;;;;;;;;;;;;4949276;28;19922;-90
2023/05/09 13:43:31;;;;;;;;;;;;;;;;;;4956788;28;19926;-90
2023/05/09 13:45:56;;;;;;;;;;;;;;;;;;4956774;28;20012;-90
2023/05/09 13:48:22;;;;;;;;;;;;;;;;;;4956343;28;19926;-91
2023/05/09 13:50:49;;;;;;;;;;;;;;;;;;4956501;28;19945;-90
2023/05/09 13:53:15;;;;;;;;;;;;;;;;;;4956249;28;19977;-89
2023/05/09 13:55:41;;;;;;;;;;;;;;;;;;4971962;28;19925;-90
2023/05/09 13:58:07;;;;;;;;;;;;;;;;;;4952605;28;19957;-90
2023/05/09 14:00:33;;;;;;;;;;;;;;;;;;4956032;28;19925;-90
2023/05/09 14:02:59;;;;;;;;;;;;;;;;;;4956160;28;20314;-90
2023/05/09 14:05:25;;;;;;;;;;;;;;;;;;4956215;28;20395;-91
2023/05/09 14:07:51;;;;;;;;;;;;;;;;;;4956296;28;19922;-90
2023/05/09 14:10:16;;;;;;;;;;;;;;;;;;4954589;28;19957;-90
2023/05/09 14:12:45;;;;;;;;;;;;;;;;;;4955512;28;20025;-90
2023/05/09 14:15:11;;;;;;;;;;;;;;;;;;4972590;28;20431;-89
2023/05/09 14:17:37;;;;;;;;;;;;;;;;;;4956322;28;19926;-90
2023/05/09 14:20:03;;;;;;;;;;;;;;;;;;4956465;28;20022;-89
2023/05/09 14:22:29;;;;;;;;;;;;;;;;;;4971622;28;19926;-89
2023/05/09 14:24:58;;;;;;;;;;;;;;;;;;4972198;28;19922;-90
2023/05/09 14:29:56;;;;;;;;;;;;;;;;;;4972184;28;19922;-90
2023/05/09 14:32:22;;;;;;;;;;;;;;;;;;4957312;28;19922;-90
2023/05/09 14:34:48;;;;;;;;;;;;;;;;;;4958059;28;20072;-91
2023/05/09 14:37:14;;;;;;;;;;;;;;;;;;4956977;28;19930;-90
2023/05/09 14:39:41;;;;;;;;;;;;;;;;;;4973764;28;19926;-90
2023/05/09 14:42:09;;;;;;;;;;;;;;;;;;4957072;28;19954;-90
2023/05/09 14:44:35;;;;;;;;;;;;;;;;;;4951974;28;19922;-90
2023/05/09 14:47:04;;;;;;;;;;;;;;;;;;4969826;28;20414;-90
2023/05/09 14:49:30;;;;;;;;;;;;;;;;;;4950507;28;19929;-90
2023/05/09 14:51:56;;;;;;;;;;;;;;;;;;4964707;28;19954;-89
2023/05/09 14:54:22;;;;;;;;;;;;;;;;;;4966933;28;19922;-90
2023/05/09 14:56:48;;;;;;;;;;;;;;;;;;4950637;28;19933;-89
2023/05/09 14:59:15;;;;;;;;;;;;;;;;;;4952790;28;19930;-90
2023/05/09 15:01:41;;;;;;;;;;;;;;;;;;4951078;28;19922;-91
2023/05/09 15:04:06;;;;;;;;;;;;;;;;;;4965271;28;19923;-90
2023/05/09 15:06:35;;;;;;;;;;;;;;;;;;4958660;28;19926;-93
2023/05/09 15:09:18;;;;;;;;;;;;;;;;;;4965713;28;19923;-93
2023/05/09 15:11:45;;;;;;;;;;;;;;;;;;4943507;28;19922;-93
2023/05/09 15:14:11;;;;;;;;;;;;;;;;;;4961095;28;20000;-93
2023/05/09 15:16:37;;;;;;;;;;;;;;;;;;4960910;28;20077;-94
2023/05/09 15:19:03;;;;;;;;;;;;;;;;;;4955689;28;19937;-91
2023/05/09 15:21:29;;;;;;;;;;;;;;;;;;4951040;28;20318;-91
2023/05/09 15:23:56;;;;;;;;;;;;;;;;;;4948613;28;19923;-91
2023/05/09 15:26:22;;;;;;;;;;;;;;;;;;4949477;28;20340;-92
2023/05/09 15:28:48;;;;;;;;;;;;;;;;;;4975599;28;19976;-92
2023/05/09 15:31:13;;;;;;;;;;;;;;;;;;4959042;28;19977;-91
2023/05/09 15:33:39;;;;;;;;;;;;;;;;;;4950399;28;19993;-92
2023/05/09 15:36:07;;;;;;;;;;;;;;;;;;4964672;28;20291;-90
2023/05/09 15:38:33;;;;;;;;;;;;;;;;;;4952661;28;20004;-91
2023/05/09 15:40:59;;;;;;;;;;;;;;;;;;4947363;29;20315;-92
2023/05/09 15:43:25;;;;;;;;;;;;;;;;;;4968120;28;19953;-91
2023/05/09 15:45:51;;;;;;;;;;;;;;;;;;4954833;28;19922;-92
2023/05/09 15:48:17;;;;;;;;;;;;;;;;;;4968129;28;19969;-91
2023/05/09 15:50:43;;;;;;;;;;;;;;;;;;4954944;28;19976;-92
2023/05/09 15:53:09;;;;;;;;;;;;;;;;;;4949226;28;19922;-91
2023/05/09 15:55:35;;;;;;;;;;;;;;;;;;4950564;28;19933;-92
2023/05/09 15:58:01;;;;;;;;;;;;;;;;;;4947820;28;19926;-91
2023/05/09 16:00:28;;;;;;;;;;;;;;;;;;4967116;28;19923;-91
2023/05/09 16:02:54;;;;;;;;;;;;;;;;;;4954889;28;19922;-92
2023/05/09 16:05:20;;;;;;;;;;;;;;;;;;4951761;28;20302;-91
2023/05/09 16:07:46;;;;;;;;;;;;;;;;;;4949876;28;19931;-91
2023/05/09 16:10:12;;;;;;;;;;;;;;;;;;4951288;28;19937;-90
2023/05/09 16:12:38;;;;;;;;;;;;;;;;;;4949257;28;19985;-92
2023/05/09 16:15:04;;;;;;;;;;;;;;;;;;4950543;28;19922;-91
2023/05/09 16:17:33;;;;;;;;;;;;;;;;;;4947430;28;19926;-91
2023/05/09 16:19:59;;;;;;;;;;;;;;;;;;4957406;28;19923;-92
2023/05/09 16:22:25;;;;;;;;;;;;;;;;;;4958252;28;19922;-92
2023/05/09 16:24:50;;;;;;;;;;;;;;;;;;4956852;28;20017;-91
2023/05/09 16:27:16;;;;;;;;;;;;;;;;;;4958218;28;19972;-91
2023/05/09 16:29:42;;;;;;;;;;;;;;;;;;4958609;28;19941;-90
2023/05/09 16:32:08;;;;;;;;;;;;;;;;;;4958341;28;19922;-90
2023/05/09 16:34:34;;;;;;;;;;;;;;;;;;4957905;28;19937;-93
2023/05/09 16:37:00;;;;;;;;;;;;;;;;;;4973611;28;19926;-93
2023/05/09 16:39:26;;;;;;;;;;;;;;;;;;4957869;28;19932;-90
2023/05/09 16:41:54;;;;;;;;;;;;;;;;;;4954925;28;21378;-92
2023/05/09 16:44:20;;;;;;;;;;;;;;;;;;4957174;28;20012;-92
2023/05/09 16:46:46;;;;;;;;;;;;;;;;;;4957774;28;19934;-92
2023/05/09 16:49:15;;;;;;;;;;;;;;;;;;4950243;28;20019;-91
2023/05/09 16:51:41;;;;;;;;;;;;;;;;;;4953824;28;19929;-92
2023/05/09 16:54:07;;;;;;;;;;;;;;;;;;4956493;28;19922;-90